createdAt,value
2022-10-17T00:00:02.942Z,10.4
2022-10-17T00:05:01.724Z,9.9
2022-10-17T00:10:01.817Z,8.3
2022-10-17T00:15:03.541Z,8.4
2022-10-17T00:25:01.840Z,8.2
2022-10-17T00:30:02.960Z,8.5
2022-10-17T00:35:01.886Z,10.3
2022-10-17T00:40:01.773Z,10.6
2022-10-17T00:45:17.442Z,10.6
2022-10-17T00:55:01.911Z,9.8
2022-10-17T01:00:07.310Z,9.8
2022-10-17T01:05:01.448Z,9.4
2022-10-17T01:10:01.730Z,9.8
2022-10-17T01:15:01.752Z,10.3
2022-10-17T01:20:01.665Z,10.9
2022-10-17T01:25:01.729Z,11.5
2022-10-17T01:30:18.255Z,11.4
2022-10-17T01:35:01.601Z,11.6
2022-10-17T01:40:02.142Z,12.1
2022-10-17T01:45:11.198Z,12.2
2022-10-17T01:50:02.868Z,12.6
2022-10-17T01:55:01.631Z,13.3
2022-10-17T02:00:06.223Z,13.4
2022-10-17T02:10:01.873Z,14.7
2022-10-17T02:15:15.629Z,15.1
2022-10-17T02:20:01.641Z,16.4
2022-10-17T02:25:01.640Z,18.1
2022-10-17T02:30:05.957Z,18.5
2022-10-17T02:35:01.508Z,19.0
2022-10-17T02:40:01.546Z,19.8
2022-10-17T02:45:03.154Z,20.2
2022-10-17T02:50:01.843Z,20.3
2022-10-17T02:55:01.615Z,21.0
2022-10-17T03:00:04.799Z,21.7
2022-10-17T03:05:01.757Z,22.4
2022-10-17T03:15:03.551Z,23.0
2022-10-17T03:26:01.797Z,23.6
2022-10-17T03:31:01.898Z,23.6
2022-10-17T03:36:01.917Z,24.1
2022-10-17T03:46:01.741Z,24.7
2022-10-17T03:51:01.884Z,25.2
2022-10-17T03:56:01.750Z,25.3
2022-10-17T04:01:02.051Z,25.1
2022-10-17T04:06:01.887Z,25.2
2022-10-17T04:11:02.753Z,25.4
2022-10-17T04:21:02.158Z,25.4
2022-10-17T04:26:01.753Z,25.8
2022-10-17T04:31:06.822Z,25.9
2022-10-17T04:36:01.915Z,26.3
2022-10-17T04:41:01.760Z,26.4
2022-10-17T04:46:01.753Z,26.8
2022-10-17T04:51:01.763Z,26.9
2022-10-17T04:56:01.726Z,27.2
2022-10-17T05:01:04.850Z,26.8
2022-10-17T05:06:01.736Z,27.3
2022-10-17T05:11:01.990Z,27.1
2022-10-17T05:16:01.758Z,27.4
2022-10-17T05:21:01.740Z,27.4
2022-10-17T05:26:01.807Z,28.0
2022-10-17T05:31:01.851Z,27.9
2022-10-17T05:36:01.918Z,28.4
2022-10-17T05:41:01.605Z,28.6
2022-10-17T05:46:01.720Z,28.8
2022-10-17T05:51:01.796Z,28.9
2022-10-17T05:56:01.786Z,29.4
2022-10-17T06:01:01.876Z,29.9
2022-10-17T06:06:01.806Z,30.4
2022-10-17T06:11:10.815Z,30.3
2022-10-17T06:16:01.754Z,30.3
2022-10-17T06:21:01.779Z,30.1
2022-10-17T06:26:01.808Z,30.0
2022-10-17T06:31:01.924Z,30.0
2022-10-17T06:36:01.758Z,30.6
2022-10-17T06:41:01.732Z,31.2
2022-10-17T06:46:01.716Z,31.6
2022-10-17T06:51:01.817Z,32.0
2022-10-17T06:56:01.724Z,31.7
2022-10-17T07:01:02.413Z,31.3
2022-10-17T07:06:01.736Z,31.2
2022-10-17T07:16:01.933Z,31.2
2022-10-17T07:21:01.854Z,31.2
2022-10-17T07:26:05.692Z,31.4
2022-10-17T07:31:06.770Z,31.6
2022-10-17T07:36:01.779Z,31.2
2022-10-17T07:41:02.880Z,30.6
2022-10-17T07:46:03.294Z,30.2
2022-10-17T07:51:02.864Z,29.6
2022-10-17T07:56:06.324Z,28.6
2022-10-17T08:01:04.060Z,28.4
2022-10-17T08:06:01.720Z,28.1
2022-10-17T08:11:01.754Z,27.9
2022-10-17T08:16:01.781Z,27.9
2022-10-17T08:21:01.740Z,27.7
2022-10-17T08:26:01.725Z,27.2
2022-10-17T08:31:03.781Z,27.2
2022-10-17T08:36:01.722Z,27.2
2022-10-17T08:41:04.074Z,26.8
2022-10-17T08:46:05.316Z,26.2
2022-10-17T08:51:06.064Z,26.0
2022-10-17T08:56:01.619Z,25.8
2022-10-17T09:01:01.535Z,25.1
2022-10-17T09:06:01.435Z,25.1
2022-10-17T09:11:01.480Z,25.6
2022-10-17T09:16:01.514Z,25.7
2022-10-17T09:21:01.528Z,25.5
2022-10-17T09:26:01.422Z,25.6
2022-10-17T09:31:01.686Z,25.4
2022-10-17T09:36:04.656Z,25.2
2022-10-17T09:41:01.955Z,24.9
2022-10-17T09:46:06.976Z,25.0
2022-10-17T09:56:01.219Z,24.8
2022-10-17T10:01:01.951Z,25.0
2022-10-17T10:06:01.881Z,25.2
2022-10-17T10:11:01.554Z,25.4
2022-10-17T10:16:01.250Z,25.6
2022-10-17T10:21:01.693Z,25.9
2022-10-17T10:26:01.808Z,25.6
2022-10-17T10:31:01.521Z,25.6
2022-10-17T10:36:01.774Z,25.5
2022-10-17T10:41:01.934Z,25.4
2022-10-17T10:46:01.313Z,25.2
2022-10-17T10:51:06.591Z,24.8
2022-10-17T10:56:01.450Z,25.0
2022-10-17T11:01:01.474Z,24.2
2022-10-17T11:06:01.882Z,23.9
2022-10-17T11:12:01.774Z,23.7
2022-10-17T11:17:08.023Z,24.3
2022-10-17T11:22:02.066Z,23.6
2022-10-17T11:32:01.904Z,23.4
2022-10-17T11:37:01.888Z,23.3
2022-10-17T11:42:04.621Z,22.6
2022-10-17T11:47:01.801Z,22.2
2022-10-17T11:52:03.796Z,21.2
2022-10-17T11:57:01.765Z,21.4
2022-10-17T12:02:01.740Z,21.4
2022-10-17T12:07:01.846Z,21.8
2022-10-17T12:13:01.750Z,22.0
2022-10-17T12:18:01.951Z,22.7
2022-10-17T12:23:02.090Z,22.5
2022-10-17T12:28:01.837Z,22.2
2022-10-17T12:33:16.785Z,21.9
2022-10-17T12:38:01.764Z,21.9
2022-10-17T12:43:02.087Z,21.6
2022-10-17T12:48:02.202Z,21.2
2022-10-17T12:53:01.915Z,20.8
2022-10-17T12:58:01.800Z,20.4
2022-10-17T13:03:01.850Z,20.5
2022-10-17T13:08:01.924Z,20.2
2022-10-17T13:13:01.883Z,20.2
2022-10-17T13:18:01.731Z,20.4
2022-10-17T13:23:02.873Z,20.6
2022-10-17T13:28:02.044Z,20.3
2022-10-17T13:33:02.010Z,20.6
2022-10-17T13:38:02.052Z,20.8
2022-10-17T13:43:02.006Z,20.4
2022-10-17T13:48:01.833Z,20.1
2022-10-17T13:53:01.654Z,20.2
2022-10-17T13:58:01.816Z,20.4
2022-10-17T14:03:03.758Z,20.2
2022-10-17T14:08:24.937Z,20.4
2022-10-17T14:13:03.091Z,21.2
2022-10-17T14:18:16.810Z,21.1
2022-10-17T14:33:05.223Z,21.2
2022-10-17T14:38:01.444Z,20.6
2022-10-17T14:43:02.078Z,20.8
2022-10-17T14:48:12.035Z,21.1
2022-10-17T14:53:01.796Z,21.1
2022-10-17T14:58:01.753Z,20.9
2022-10-17T15:03:01.837Z,21.3
2022-10-17T15:08:01.865Z,21.4
2022-10-17T15:18:02.343Z,21.9
2022-10-17T15:23:02.514Z,22.2
2022-10-17T15:28:02.196Z,22.0
2022-10-17T15:33:01.853Z,22.3
2022-10-17T15:38:01.791Z,22.1
2022-10-17T15:43:01.738Z,22.1
2022-10-17T15:53:04.539Z,22.9
2022-10-17T16:03:01.744Z,23.4
2022-10-17T16:08:01.746Z,24.3
2022-10-17T16:13:02.023Z,24.7
2022-10-17T16:18:10.531Z,24.4
2022-10-17T16:23:02.017Z,24.2
2022-10-17T16:28:01.743Z,24.6
2022-10-17T16:33:02.345Z,23.9
2022-10-17T16:43:01.745Z,23.7
2022-10-17T16:48:02.255Z,24.0
2022-10-17T16:53:02.387Z,24.5
2022-10-17T16:58:02.393Z,25.4
2022-10-17T17:03:04.037Z,26.0
2022-10-17T17:08:01.818Z,26.2
2022-10-17T17:13:02.582Z,26.5
2022-10-17T17:18:07.092Z,26.0
2022-10-17T17:23:02.184Z,25.8
2022-10-17T17:28:01.444Z,25.7
2022-10-17T17:33:01.844Z,26.1
2022-10-17T17:38:01.736Z,26.2
2022-10-17T17:48:01.750Z,25.7
2022-10-17T17:53:01.874Z,26.4
2022-10-17T17:58:02.738Z,26.3
2022-10-17T18:03:01.726Z,26.8
2022-10-17T18:08:01.719Z,28.1
2022-10-17T18:13:01.879Z,28.6
2022-10-17T18:18:01.751Z,28.6
2022-10-17T18:23:05.023Z,29.0
2022-10-17T18:28:01.760Z,29.0
2022-10-17T18:33:01.818Z,28.6
2022-10-17T18:38:01.735Z,28.4
2022-10-17T18:43:01.732Z,28.3
2022-10-17T18:48:01.768Z,28.1
2022-10-17T18:58:02.308Z,27.4
2022-10-17T19:03:01.717Z,28.0
2022-10-17T19:08:01.712Z,28.1
2022-10-17T19:13:01.732Z,27.9
2022-10-17T19:18:02.012Z,28.3
2022-10-17T19:23:01.715Z,29.2
2022-10-17T19:28:01.717Z,29.0
2022-10-17T19:33:01.789Z,29.4
2022-10-17T19:38:01.938Z,29.9
2022-10-17T19:43:01.721Z,29.7
2022-10-17T19:48:01.717Z,29.3
2022-10-17T19:53:01.688Z,29.1
2022-10-17T19:58:01.822Z,28.5
2022-10-17T20:03:01.759Z,28.0
2022-10-17T20:08:01.770Z,27.6
2022-10-17T20:13:01.867Z,27.6
2022-10-17T20:18:01.762Z,27.7
2022-10-17T20:23:01.709Z,28.3
2022-10-17T20:28:01.838Z,28.6
2022-10-17T20:33:02.148Z,28.9
2022-10-17T20:38:01.945Z,29.2
2022-10-17T20:43:01.775Z,29.5
2022-10-17T20:48:01.766Z,29.5
2022-10-17T20:58:01.945Z,29.2
2022-10-17T21:03:01.791Z,28.8
2022-10-17T21:08:01.731Z,28.3
2022-10-17T21:13:01.783Z,28.1
2022-10-17T21:18:01.819Z,27.8
2022-10-17T21:23:01.846Z,28.0
2022-10-17T21:28:01.838Z,28.4
2022-10-17T21:33:01.714Z,28.4
2022-10-17T21:38:01.778Z,28.0
2022-10-17T21:43:01.717Z,28.1
2022-10-17T21:48:13.862Z,28.4
2022-10-17T21:53:01.738Z,28.2
2022-10-17T21:58:01.825Z,28.1
2022-10-17T22:03:02.238Z,28.0
2022-10-17T22:13:01.729Z,28.0
2022-10-17T22:18:01.936Z,28.4
2022-10-17T22:23:01.785Z,28.2
2022-10-17T22:28:01.710Z,28.8
2022-10-17T22:33:01.712Z,28.8
2022-10-17T22:38:01.652Z,28.6
2022-10-17T22:43:01.619Z,28.4
2022-10-17T22:48:01.976Z,28.8
2022-10-17T22:53:01.353Z,27.8
2022-10-17T22:58:01.490Z,27.4
2022-10-17T23:03:01.703Z,26.7
2022-10-17T23:08:01.600Z,26.1
2022-10-17T23:13:01.730Z,25.8
2022-10-17T23:18:01.521Z,26.0
2022-10-17T23:23:01.766Z,26.0
2022-10-17T23:28:01.776Z,26.9
2022-10-17T23:33:01.770Z,27.5
2022-10-17T23:38:01.868Z,27.9
2022-10-17T23:43:01.799Z,28.2
2022-10-17T23:49:02.618Z,27.8
2022-10-17T23:54:02.228Z,27.7
2022-10-17T23:59:01.756Z,27.2
